Muzaffarabad Weather



Muzaffarabad's Current Weather

Temprature 8.37o clear sky

clear sky

Rain: 0 %

Min Temprature8.37o
Max Temprature8.37o
Humidity47
Wind Speed2.16 m/h
Sun Rise07:11:15
Sun Set17:21:20
Current Time: 18-Jan-2021 05:58:50
Lat/Lon: 34.37, 73.4711




Muzaffarabad's Geo Location



Muzaffarabad's Weather Forecast

Time Overall Temp Min Temp Max Temp Humidity Wind Speed Rain
18-Jan-2021 (Mon)
08:00:00 scattered clouds 8.920 8.920 9.270 46 2.03 m/h 0 %
11:00:00 broken clouds 14.430 14.430 16.040 33 1.04 m/h 0 %
14:00:00 few clouds 17.490 17.490 18.100 28 1.44 m/h 0 %
17:00:00 clear sky 13.900 13.900 13.940 37 0.99 m/h 0 %
20:00:00 clear sky 10.590 10.590 10.590 44 2.27 m/h 0 %
23:00:00 few clouds 9.640 9.640 9.640 45 2.34 m/h 0 %
19-Jan-2021 (Tue)
02:00:00 scattered clouds 8.880 8.880 8.880 46 2.5 m/h 0 %
05:00:00 few clouds 8.240 8.240 8.240 46 2.53 m/h 0 %
08:00:00 clear sky 8.880 8.880 8.880 45 2.47 m/h 0 %
11:00:00 clear sky 16.580 16.580 16.580 28 0.97 m/h 0 %
14:00:00 clear sky 18.730 18.730 18.730 24 1.28 m/h 0 %
17:00:00 clear sky 14.500 14.500 14.500 34 0.89 m/h 0 %
20:00:00 clear sky 10.720 10.720 10.720 42 2.52 m/h 0 %
23:00:00 clear sky 9.500 9.500 9.500 44 2.61 m/h 0 %
20-Jan-2021 (Wed)
02:00:00 clear sky 8.630 8.630 8.630 46 2.64 m/h 0 %
05:00:00 clear sky 7.920 7.920 7.920 47 2.73 m/h 0 %
08:00:00 clear sky 8.680 8.680 8.680 46 2.71 m/h 0 %
11:00:00 clear sky 16.840 16.840 16.840 27 0.56 m/h 0 %
14:00:00 clear sky 19.160 19.160 19.160 23 1.27 m/h 0 %
17:00:00 clear sky 14.690 14.690 14.690 34 1.57 m/h 0 %
20:00:00 broken clouds 10.510 10.510 10.510 41 3.17 m/h 0 %
23:00:00 overcast clouds 9.430 9.430 9.430 42 3.09 m/h 0 %
21-Jan-2021 (Thu)
02:00:00 broken clouds 8.270 8.270 8.270 44 3.04 m/h 0 %
05:00:00 scattered clouds 7.680 7.680 7.680 44 3.3 m/h 0 %
08:00:00 overcast clouds 8.840 8.840 8.840 42 2.8 m/h 0 %
11:00:00 overcast clouds 16.720 16.720 16.720 26 1.73 m/h 0 %
14:00:00 overcast clouds 19.230 19.230 19.230 22 0.63 m/h 0 %
17:00:00 overcast clouds 14.890 14.890 14.890 32 1.33 m/h 0 %
20:00:00 overcast clouds 11.020 11.020 11.020 39 2.19 m/h 0 %
23:00:00 broken clouds 9.790 9.790 9.790 40 2.24 m/h 0 %
22-Jan-2021 (Fri)
02:00:00 scattered clouds 9.430 9.430 9.430 40 2.12 m/h 0 %
05:00:00 broken clouds 9.690 9.690 9.690 40 2.06 m/h 0 %
08:00:00 overcast clouds 10.690 10.690 10.690 39 1.67 m/h 0 %
11:00:00 overcast clouds 16.640 16.640 16.640 27 1.39 m/h 0 %
14:00:00 overcast clouds 18.110 18.110 18.110 27 2.04 m/h 0 %
17:00:00 overcast clouds 14.620 14.620 14.620 36 1.09 m/h 0 %
20:00:00 overcast clouds 11.870 11.870 11.870 46 2.26 m/h 0 %
23:00:00 overcast clouds 10.510 10.510 10.510 49 1.94 m/h 0 %
23-Jan-2021 (Sat)
02:00:00 few clouds 10.320 10.320 10.320 47 1.43 m/h 0 %
05:00:00 light rain 9.680 9.680 9.680 58 2.19 m/h 46 %

Famous Cities (60)